createdAt,value
2023-02-06T00:00:58.332Z,1035.64
2023-02-06T00:01:58.640Z,1035.69
2023-02-06T00:02:58.887Z,1035.67
2023-02-06T00:03:59.194Z,1035.71
2023-02-06T00:04:59.526Z,1035.69
2023-02-06T00:05:59.833Z,1035.68
2023-02-06T00:07:00.134Z,1035.68
2023-02-06T00:08:00.388Z,1035.67
2023-02-06T00:09:00.692Z,1035.72
2023-02-06T00:10:00.983Z,1035.71
2023-02-06T00:11:01.289Z,1035.70
2023-02-06T00:12:01.590Z,1035.73
2023-02-06T00:13:01.859Z,1035.72
2023-02-06T00:14:02.147Z,1035.75
2023-02-06T00:15:02.428Z,1035.75
2023-02-06T00:16:02.772Z,1035.78
2023-02-06T00:17:02.948Z,1035.78
2023-02-06T00:18:03.243Z,1035.81
2023-02-06T00:19:03.523Z,1035.79
2023-02-06T00:20:03.796Z,1035.81
2023-02-06T00:21:04.076Z,1035.78
2023-02-06T00:22:04.365Z,1035.82
2023-02-06T00:23:04.649Z,1035.84
2023-02-06T00:24:04.912Z,1035.84
2023-02-06T00:25:05.233Z,1035.82
2023-02-06T00:26:05.519Z,1035.80
2023-02-06T00:27:05.788Z,1035.76
2023-02-06T00:28:06.099Z,1035.80
2023-02-06T00:29:06.349Z,1035.76
2023-02-06T00:30:06.632Z,1035.73
2023-02-06T00:31:07.010Z,1035.70
2023-02-06T00:32:07.183Z,1035.74
2023-02-06T00:33:07.519Z,1035.77
2023-02-06T00:34:07.787Z,1035.73
2023-02-06T00:35:08.077Z,1035.69
2023-02-06T00:36:08.336Z,1035.67
2023-02-06T00:37:08.678Z,1035.69
2023-02-06T00:38:08.963Z,1035.73
2023-02-06T00:39:09.203Z,1035.71
2023-02-06T00:40:09.495Z,1035.73
2023-02-06T00:41:09.802Z,1035.72
2023-02-06T00:42:10.092Z,1035.73
2023-02-06T00:43:10.353Z,1035.74
2023-02-06T00:44:10.644Z,1035.77
2023-02-06T00:45:10.891Z,1035.77
2023-02-06T00:46:11.200Z,1035.78
2023-02-06T00:47:11.495Z,1035.78
2023-02-06T00:48:11.784Z,1035.76
2023-02-06T00:49:12.114Z,1035.81
2023-02-06T00:50:12.403Z,1035.75
2023-02-06T00:51:12.645Z,1035.82
2023-02-06T00:52:12.980Z,1035.83
2023-02-06T00:53:13.236Z,1035.80
2023-02-06T00:54:13.554Z,1035.82
2023-02-06T00:55:13.837Z,1035.85
2023-02-06T00:56:14.088Z,1035.80
2023-02-06T00:57:14.424Z,1035.82
2023-02-06T00:58:14.816Z,1035.80
2023-02-06T00:59:15.024Z,1035.78
2023-02-06T01:00:15.268Z,1035.78
2023-02-06T01:01:15.556Z,1035.82
2023-02-06T01:02:15.908Z,1035.73
2023-02-06T01:03:16.143Z,1035.73
2023-02-06T01:04:16.487Z,1035.72
2023-02-06T01:05:16.767Z,1035.69
2023-02-06T01:06:17.074Z,1035.71
2023-02-06T01:07:17.366Z,1035.66
2023-02-06T01:08:17.622Z,1035.67
2023-02-06T01:09:17.939Z,1035.68
2023-02-06T01:10:18.214Z,1035.69
2023-02-06T01:11:18.526Z,1035.68
2023-02-06T01:12:18.782Z,1035.68
2023-02-06T01:13:19.043Z,1035.65
2023-02-06T01:14:19.361Z,1035.66
2023-02-06T01:15:19.641Z,1035.70
2023-02-06T01:16:19.962Z,1035.69
2023-02-06T01:17:20.230Z,1035.68
2023-02-06T01:18:20.505Z,1035.65
2023-02-06T01:19:20.787Z,1035.71
2023-02-06T01:20:21.048Z,1035.79
2023-02-06T01:21:21.374Z,1035.78
2023-02-06T01:22:21.636Z,1035.73
2023-02-06T01:23:21.922Z,1035.76
2023-02-06T01:24:22.168Z,1035.72
2023-02-06T01:25:22.485Z,1035.73
2023-02-06T01:26:22.769Z,1035.70
2023-02-06T01:27:23.035Z,1035.66
2023-02-06T01:28:23.312Z,1035.65
2023-02-06T01:29:23.577Z,1035.67
2023-02-06T01:30:23.912Z,1035.68
2023-02-06T01:31:24.205Z,1035.65
2023-02-06T01:32:24.524Z,1035.65
2023-02-06T01:33:24.776Z,1035.61
2023-02-06T01:34:25.065Z,1035.58
2023-02-06T01:35:25.357Z,1035.61
2023-02-06T01:36:25.680Z,1035.63
2023-02-06T01:37:25.942Z,1035.62
2023-02-06T01:38:26.205Z,1035.60
2023-02-06T01:39:26.510Z,1035.67
2023-02-06T01:40:26.813Z,1035.63
2023-02-06T01:41:27.115Z,1035.61
2023-02-06T01:42:27.465Z,1035.64
2023-02-06T01:43:27.725Z,1035.70
2023-02-06T01:44:28.072Z,1035.69
2023-02-06T01:45:28.382Z,1035.71
2023-02-06T01:46:28.679Z,1035.67
2023-02-06T01:47:28.955Z,1035.67
2023-02-06T01:48:29.225Z,1035.70
2023-02-06T01:49:29.571Z,1035.72
2023-02-06T01:50:29.807Z,1035.70
2023-02-06T01:51:30.171Z,1035.71
2023-02-06T01:52:30.498Z,1035.75
2023-02-06T01:53:30.785Z,1035.76
2023-02-06T01:54:31.059Z,1035.80
2023-02-06T01:55:31.393Z,1035.77
2023-02-06T01:56:31.698Z,1035.76
2023-02-06T01:57:32.060Z,1035.82
2023-02-06T01:58:32.366Z,1035.82
2023-02-06T01:59:32.640Z,1035.85
2023-02-06T02:00:32.926Z,1035.83
2023-02-06T02:01:33.275Z,1035.88
2023-02-06T02:02:33.549Z,1035.92
2023-02-06T02:03:33.846Z,1035.91
2023-02-06T02:04:34.171Z,1035.94
2023-02-06T02:05:34.981Z,1035.91
2023-02-06T02:06:34.745Z,1035.88
2023-02-06T02:07:35.046Z,1035.87
2023-02-06T02:08:35.331Z,1035.87
2023-02-06T02:09:35.678Z,1035.87
2023-02-06T02:10:35.933Z,1035.84
2023-02-06T02:11:36.266Z,1035.79
2023-02-06T02:12:36.570Z,1035.84
2023-02-06T02:13:36.869Z,1035.80
2023-02-06T02:14:37.167Z,1035.83
2023-02-06T02:15:37.552Z,1035.83
2023-02-06T02:16:37.799Z,1035.85
2023-02-06T02:17:38.100Z,1035.83
2023-02-06T02:18:38.403Z,1035.84
2023-02-06T02:19:38.696Z,1035.77
2023-02-06T02:20:38.994Z,1035.76
2023-02-06T02:21:39.286Z,1035.79
2023-02-06T02:22:39.571Z,1035.71
2023-02-06T02:23:39.875Z,1035.72
2023-02-06T02:24:40.157Z,1035.75
2023-02-06T02:25:40.432Z,1035.76
2023-02-06T02:26:40.778Z,1035.76
2023-02-06T02:27:41.072Z,1035.78
2023-02-06T02:28:41.389Z,1035.82
2023-02-06T02:29:41.730Z,1035.81
2023-02-06T02:30:41.961Z,1035.80
2023-02-06T02:31:42.240Z,1035.81
2023-02-06T02:32:42.595Z,1035.77
2023-02-06T02:33:42.881Z,1035.77
2023-02-06T02:34:43.153Z,1035.72
2023-02-06T02:35:43.486Z,1035.74
2023-02-06T02:36:43.767Z,1035.69
2023-02-06T02:37:44.080Z,1035.65
2023-02-06T02:38:44.390Z,1035.67
2023-02-06T02:39:44.636Z,1035.65
2023-02-06T02:40:44.955Z,1035.65
2023-02-06T02:41:45.253Z,1035.63
2023-02-06T02:42:45.601Z,1035.64
2023-02-06T02:43:45.901Z,1035.61
2023-02-06T02:44:46.189Z,1035.61
2023-02-06T02:45:46.515Z,1035.61
2023-02-06T02:46:46.786Z,1035.58
2023-02-06T02:47:47.111Z,1035.60
2023-02-06T02:48:47.391Z,1035.59
2023-02-06T02:49:47.729Z,1035.59
2023-02-06T02:50:48.012Z,1035.56
2023-02-06T02:51:48.296Z,1035.60
2023-02-06T02:52:48.624Z,1035.59
2023-02-06T02:53:48.881Z,1035.62
2023-02-06T02:54:49.207Z,1035.62
2023-02-06T02:55:49.470Z,1035.71
2023-02-06T02:56:49.779Z,1035.67
2023-02-06T02:57:50.135Z,1035.68
2023-02-06T02:58:50.420Z,1035.73
2023-02-06T02:59:50.762Z,1035.73
2023-02-06T03:00:51.040Z,1035.72
2023-02-06T03:01:51.212Z,1035.77
2023-02-06T03:02:51.537Z,1035.77
2023-02-06T03:03:51.806Z,1035.78
2023-02-06T03:04:52.127Z,1035.79
2023-02-06T03:05:52.472Z,1035.79
2023-02-06T03:06:52.835Z,1035.76
2023-02-06T03:07:52.976Z,1035.80
2023-02-06T03:08:53.286Z,1035.80
2023-02-06T03:09:53.615Z,1035.84
2023-02-06T03:11:00.929Z,1035.85
2023-02-06T03:11:54.914Z,1035.88
2023-02-06T03:12:55.252Z,1035.85
2023-02-06T03:13:56.438Z,1035.88
2023-02-06T03:14:55.184Z,1035.87
2023-02-06T03:15:55.485Z,1035.87
2023-02-06T03:16:55.743Z,1035.86
2023-02-06T03:17:56.038Z,1035.87
2023-02-06T03:18:56.337Z,1035.84
2023-02-06T03:19:56.677Z,1035.80
2023-02-06T03:20:56.978Z,1035.76
2023-02-06T03:21:57.284Z,1035.72
2023-02-06T03:22:57.581Z,1035.72
2023-02-06T03:23:57.839Z,1035.69
2023-02-06T03:24:58.204Z,1035.73
2023-02-06T03:25:58.479Z,1035.78
2023-02-06T03:26:58.778Z,1035.74
2023-02-06T03:27:59.085Z,1035.78
2023-02-06T03:28:59.361Z,1035.81
2023-02-06T03:29:59.658Z,1035.83
2023-02-06T03:30:59.958Z,1035.83
2023-02-06T03:32:00.268Z,1035.86
2023-02-06T03:33:00.549Z,1035.93
2023-02-06T03:34:00.857Z,1035.96
2023-02-06T03:35:01.215Z,1036.00
2023-02-06T03:36:01.526Z,1035.97
2023-02-06T03:37:01.833Z,1035.96
2023-02-06T03:38:02.116Z,1035.95
2023-02-06T03:39:02.429Z,1035.98
2023-02-06T03:40:02.749Z,1035.93
2023-02-06T03:41:03.071Z,1035.94
2023-02-06T03:42:03.436Z,1035.91
2023-02-06T03:43:03.696Z,1035.90
2023-02-06T03:44:04.031Z,1035.92
2023-02-06T03:45:04.330Z,1035.96
2023-02-06T03:46:04.785Z,1035.98
2023-02-06T03:47:04.906Z,1036.04
2023-02-06T03:48:05.186Z,1035.97
2023-02-06T03:49:05.459Z,1035.98
2023-02-06T03:50:05.794Z,1035.93
2023-02-06T03:51:06.048Z,1035.92
2023-02-06T03:52:06.405Z,1035.92
2023-02-06T03:53:06.683Z,1035.92
2023-02-06T03:54:07.011Z,1035.91
2023-02-06T03:55:07.278Z,1035.98
2023-02-06T03:56:07.606Z,1036.04
2023-02-06T03:57:07.935Z,1036.04
2023-02-06T03:58:08.250Z,1036.04
2023-02-06T03:59:08.511Z,1036.05
2023-02-06T04:00:08.829Z,1036.07
2023-02-06T04:01:09.198Z,1036.07
2023-02-06T04:02:09.456Z,1036.04
2023-02-06T04:03:09.734Z,1036.06
2023-02-06T04:04:10.030Z,1036.00
2023-02-06T04:05:10.302Z,1036.02
2023-02-06T04:06:10.627Z,1036.01
2023-02-06T04:07:10.913Z,1036.04
2023-02-06T04:08:11.177Z,1036.03
2023-02-06T04:09:11.513Z,1036.02
2023-02-06T04:10:11.811Z,1035.96
2023-02-06T04:11:12.093Z,1035.99
2023-02-06T04:12:12.409Z,1035.88
2023-02-06T04:13:12.698Z,1035.90
2023-02-06T04:14:12.985Z,1035.91
2023-02-06T04:15:13.285Z,1035.87
2023-02-06T04:16:13.559Z,1035.93
2023-02-06T04:17:17.024Z,1035.98
2023-02-06T04:18:15.187Z,1035.94
2023-02-06T04:19:14.412Z,1036.01
2023-02-06T04:20:14.731Z,1035.99
2023-02-06T04:21:15.864Z,1035.95
2023-02-06T04:22:15.342Z,1035.92
2023-02-06T04:23:15.641Z,1035.94
2023-02-06T04:24:15.946Z,1035.94
2023-02-06T04:25:16.241Z,1035.94
2023-02-06T04:26:16.549Z,1035.97
2023-02-06T04:27:16.830Z,1036.00
2023-02-06T04:28:17.139Z,1035.99
2023-02-06T04:29:17.414Z,1036.01
2023-02-06T04:30:17.743Z,1035.99
2023-02-06T04:31:18.206Z,1036.01
2023-02-06T04:32:18.374Z,1036.01
2023-02-06T04:33:18.677Z,1036.00
2023-02-06T04:34:18.957Z,1036.00
2023-02-06T04:35:19.264Z,1036.01
2023-02-06T04:36:19.610Z,1035.97
2023-02-06T04:37:19.921Z,1035.99
2023-02-06T04:38:20.238Z,1035.98
2023-02-06T04:39:20.543Z,1036.01
2023-02-06T04:40:20.853Z,1036.00
2023-02-06T04:41:21.155Z,1036.04
2023-02-06T04:42:21.476Z,1036.05
2023-02-06T04:43:21.764Z,1036.01
2023-02-06T04:44:22.074Z,1036.00
2023-02-06T04:45:22.343Z,1036.00
2023-02-06T04:46:22.746Z,1036.00
2023-02-06T04:47:22.976Z,1035.95
2023-02-06T04:48:23.289Z,1035.93
2023-02-06T04:49:23.602Z,1035.93
2023-02-06T04:50:23.892Z,1035.94
2023-02-06T04:51:24.176Z,1035.96
2023-02-06T04:52:24.569Z,1035.96
2023-02-06T04:53:24.845Z,1036.02
2023-02-06T04:54:25.219Z,1036.01
2023-02-06T04:55:25.513Z,1036.04
2023-02-06T04:56:25.814Z,1036.04
2023-02-06T04:57:26.132Z,1036.02
2023-02-06T04:58:26.437Z,1036.00
2023-02-06T04:59:26.728Z,1035.99
2023-02-06T05:00:27.072Z,1036.01
2023-02-06T05:01:27.441Z,1036.00
2023-02-06T05:02:27.815Z,1036.04
2023-02-06T05:03:28.013Z,1036.07
2023-02-06T05:04:28.270Z,1036.10
2023-02-06T05:05:28.553Z,1036.07
2023-02-06T05:06:28.935Z,1036.10
2023-02-06T05:07:29.288Z,1036.12
2023-02-06T05:08:29.451Z,1036.20
2023-02-06T05:09:29.792Z,1036.20
2023-02-06T05:10:30.130Z,1036.21
2023-02-06T05:11:30.473Z,1036.23
2023-02-06T05:12:30.846Z,1036.21
2023-02-06T05:13:31.178Z,1036.22
2023-02-06T05:14:31.458Z,1036.26
2023-02-06T05:15:31.779Z,1036.31
2023-02-06T05:16:32.146Z,1036.32
2023-02-06T05:17:32.474Z,1036.30
2023-02-06T05:18:32.792Z,1036.26
2023-02-06T05:19:33.069Z,1036.29
2023-02-06T05:20:33.446Z,1036.28
2023-02-06T05:21:33.752Z,1036.29
2023-02-06T05:22:34.093Z,1036.23
2023-02-06T05:23:34.446Z,1036.22
2023-02-06T05:24:34.737Z,1036.20
2023-02-06T05:25:35.350Z,1036.17
2023-02-06T05:26:35.363Z,1036.16
2023-02-06T05:27:35.667Z,1036.14
2023-02-06T05:28:35.975Z,1036.12
2023-02-06T05:29:36.277Z,1036.12
2023-02-06T05:30:36.657Z,1036.09
2023-02-06T05:31:37.085Z,1036.04
2023-02-06T05:32:37.192Z,1036.07
2023-02-06T05:33:37.523Z,1036.03
2023-02-06T05:34:37.822Z,1036.00
2023-02-06T05:35:38.248Z,1035.98
2023-02-06T05:36:38.446Z,1036.01
2023-02-06T05:37:38.806Z,1036.01
2023-02-06T05:38:39.068Z,1035.98
2023-02-06T05:39:39.433Z,1035.96
2023-02-06T05:40:39.755Z,1036.04
2023-02-06T05:41:40.053Z,1036.02
2023-02-06T05:42:40.377Z,1036.06
2023-02-06T05:43:40.707Z,1036.03
2023-02-06T05:44:41.037Z,1036.06
2023-02-06T05:45:41.501Z,1036.03
2023-02-06T05:46:41.738Z,1036.06
2023-02-06T05:47:41.905Z,1036.03
2023-02-06T05:48:42.223Z,1036.06
2023-02-06T05:49:42.501Z,1036.07
2023-02-06T05:50:43.355Z,1036.03
2023-02-06T05:51:43.068Z,1036.02
2023-02-06T05:52:43.412Z,1036.04
2023-02-06T05:53:43.775Z,1036.03
2023-02-06T05:54:44.106Z,1036.03
2023-02-06T05:55:44.420Z,1036.05
2023-02-06T05:56:44.748Z,1036.05
2023-02-06T05:57:45.041Z,1036.04
2023-02-06T05:58:45.406Z,1036.06
2023-02-06T05:59:45.682Z,1036.06
2023-02-06T06:00:46.031Z,1036.06
2023-02-06T06:01:46.382Z,1036.05
2023-02-06T06:02:46.671Z,1036.04
2023-02-06T06:03:47.079Z,1036.10
2023-02-06T06:04:47.275Z,1036.03
2023-02-06T06:05:47.638Z,1036.06
2023-02-06T06:06:47.839Z,1036.02
2023-02-06T06:07:48.177Z,1036.02
2023-02-06T06:08:48.470Z,1036.02
2023-02-06T06:09:48.692Z,1035.97
2023-02-06T06:10:49.080Z,1036.03
2023-02-06T06:11:49.489Z,1035.97
2023-02-06T06:12:49.661Z,1035.95
2023-02-06T06:13:49.986Z,1036.03
2023-02-06T06:14:50.289Z,1036.00
2023-02-06T06:15:50.674Z,1035.93
2023-02-06T06:16:50.840Z,1035.95
2023-02-06T06:17:51.079Z,1035.97
2023-02-06T06:18:51.273Z,1035.93
2023-02-06T06:19:51.623Z,1035.95
2023-02-06T06:20:51.959Z,1035.96
2023-02-06T06:21:52.125Z,1035.91
2023-02-06T06:22:52.455Z,1035.96
2023-02-06T06:23:52.823Z,1035.95
2023-02-06T06:24:53.121Z,1035.95
2023-02-06T06:25:53.433Z,1035.92
2023-02-06T06:26:54.604Z,1035.95
2023-02-06T06:27:54.049Z,1035.96
2023-02-06T06:28:54.341Z,1035.99
2023-02-06T06:29:54.513Z,1035.99
2023-02-06T06:30:54.912Z,1035.96
2023-02-06T06:31:55.124Z,1035.98
2023-02-06T06:32:55.422Z,1035.95
2023-02-06T06:33:55.790Z,1035.92
2023-02-06T06:34:56.082Z,1035.92
2023-02-06T06:35:56.411Z,1035.94
2023-02-06T06:36:56.749Z,1035.90
2023-02-06T06:37:57.080Z,1035.91
2023-02-06T06:38:57.418Z,1035.87
2023-02-06T06:39:57.736Z,1035.91
2023-02-06T06:40:58.039Z,1035.93
2023-02-06T06:41:58.352Z,1035.98
2023-02-06T06:42:58.719Z,1035.97
2023-02-06T06:43:59.007Z,1035.99
2023-02-06T06:44:59.350Z,1035.97
2023-02-06T06:45:59.774Z,1035.97
2023-02-06T06:46:59.929Z,1035.91
2023-02-06T06:48:00.295Z,1035.90
2023-02-06T06:49:00.561Z,1035.94
2023-02-06T06:50:00.899Z,1035.90
2023-02-06T06:51:01.219Z,1035.87
2023-02-06T06:52:01.542Z,1035.90
2023-02-06T06:53:01.822Z,1035.94
2023-02-06T06:54:02.103Z,1035.93
2023-02-06T06:55:02.449Z,1035.99
2023-02-06T06:56:02.756Z,1035.93
2023-02-06T06:57:03.041Z,1035.91
2023-02-06T06:58:03.409Z,1035.89
2023-02-06T06:59:03.674Z,1035.92
2023-02-06T07:00:04.018Z,1035.89
2023-02-06T07:01:04.422Z,1035.92
2023-02-06T07:02:04.637Z,1035.89
2023-02-06T07:03:04.927Z,1035.90
2023-02-06T07:04:05.297Z,1035.98
2023-02-06T07:05:05.504Z,1035.97
2023-02-06T07:06:05.881Z,1035.98
2023-02-06T07:07:06.208Z,1035.99
2023-02-06T07:08:06.503Z,1035.97
2023-02-06T07:09:06.772Z,1035.94
2023-02-06T07:10:06.978Z,1035.96
2023-02-06T07:11:07.309Z,1035.99
2023-02-06T07:12:07.638Z,1035.95
2023-02-06T07:13:07.921Z,1035.90
2023-02-06T07:14:08.311Z,1035.92
2023-02-06T07:15:08.526Z,1035.91
2023-02-06T07:16:08.842Z,1035.88
2023-02-06T07:17:09.039Z,1035.92
2023-02-06T07:18:11.656Z,1035.92
2023-02-06T07:19:09.667Z,1035.91
2023-02-06T07:20:09.866Z,1035.91
2023-02-06T07:21:10.179Z,1035.92
2023-02-06T07:22:10.481Z,1035.93
2023-02-06T07:23:10.718Z,1035.95
2023-02-06T07:24:10.974Z,1036.01
2023-02-06T07:25:11.288Z,1035.99
2023-02-06T07:26:11.600Z,1035.92
2023-02-06T07:27:11.910Z,1035.91
2023-02-06T07:28:12.345Z,1035.91
2023-02-06T07:29:12.512Z,1035.92
2023-02-06T07:30:12.767Z,1035.96
2023-02-06T07:31:13.097Z,1035.94
2023-02-06T07:32:13.417Z,1035.92
2023-02-06T07:33:13.713Z,1035.96
2023-02-06T07:34:14.088Z,1036.00
2023-02-06T07:35:14.428Z,1036.00
2023-02-06T07:36:14.599Z,1036.03
2023-02-06T07:37:14.961Z,1036.05
2023-02-06T07:38:15.257Z,1036.03
2023-02-06T07:39:15.503Z,1036.04
2023-02-06T07:40:15.810Z,1036.06
2023-02-06T07:41:16.060Z,1036.02
2023-02-06T07:42:16.331Z,1036.07
2023-02-06T07:43:16.671Z,1035.98
2023-02-06T07:44:17.040Z,1036.00
2023-02-06T07:45:17.328Z,1036.00
2023-02-06T07:46:17.759Z,1036.05
2023-02-06T07:47:17.957Z,1035.96
2023-02-06T07:48:18.289Z,1036.01
2023-02-06T07:49:18.662Z,1035.98
2023-02-06T07:50:18.960Z,1036.04
2023-02-06T07:51:19.299Z,1036.06
2023-02-06T07:52:19.669Z,1036.04
2023-02-06T07:53:19.994Z,1036.02
2023-02-06T07:54:20.946Z,1036.07
2023-02-06T07:55:20.610Z,1036.11
2023-02-06T07:56:20.986Z,1036.09
2023-02-06T07:57:21.280Z,1036.08
2023-02-06T07:58:21.510Z,1036.06
2023-02-06T07:59:21.810Z,1036.07
2023-02-06T08:00:22.077Z,1036.06
2023-02-06T08:01:22.370Z,1036.09
2023-02-06T08:02:22.567Z,1036.10
2023-02-06T08:03:22.840Z,1036.14
2023-02-06T08:04:23.232Z,1036.13
2023-02-06T08:05:23.541Z,1036.06
2023-02-06T08:06:24.443Z,1036.08
2023-02-06T08:07:23.979Z,1036.08
2023-02-06T08:08:24.321Z,1036.11
2023-02-06T08:09:24.699Z,1036.08
2023-02-06T08:10:25.100Z,1036.11
2023-02-06T08:11:25.263Z,1036.07
2023-02-06T08:12:25.498Z,1036.07
2023-02-06T08:13:25.717Z,1036.07
2023-02-06T08:14:25.977Z,1036.03
2023-02-06T08:15:26.305Z,1036.00
2023-02-06T08:16:26.608Z,1036.05
2023-02-06T08:17:26.938Z,1036.03
2023-02-06T08:18:27.316Z,1036.04
2023-02-06T08:19:27.636Z,1036.01
2023-02-06T08:20:27.938Z,1035.99
2023-02-06T08:21:28.193Z,1036.05
2023-02-06T08:22:28.478Z,1036.06
2023-02-06T08:23:28.848Z,1036.05
2023-02-06T08:24:29.176Z,1036.05
2023-02-06T08:25:29.378Z,1036.05
2023-02-06T08:26:29.586Z,1036.07
2023-02-06T08:27:29.928Z,1036.03
2023-02-06T08:28:30.198Z,1036.07
2023-02-06T08:29:30.436Z,1036.06
2023-02-06T08:30:30.739Z,1036.05
2023-02-06T08:31:31.149Z,1036.04
2023-02-06T08:32:31.179Z,1036.07
2023-02-06T08:33:31.408Z,1036.08
2023-02-06T08:34:31.669Z,1036.10
2023-02-06T08:35:32.019Z,1036.10
2023-02-06T08:36:32.344Z,1036.12
2023-02-06T08:37:32.606Z,1036.10
2023-02-06T08:38:32.918Z,1036.08
2023-02-06T08:39:33.215Z,1035.97
2023-02-06T08:40:33.424Z,1035.98
2023-02-06T08:41:33.730Z,1035.97
2023-02-06T08:42:33.995Z,1036.01
2023-02-06T08:43:34.300Z,1036.06
2023-02-06T08:44:34.568Z,1036.09
2023-02-06T08:45:35.090Z,1036.11
2023-02-06T08:46:35.009Z,1036.09
2023-02-06T08:47:35.275Z,1036.12
2023-02-06T08:48:35.596Z,1036.06
2023-02-06T08:49:35.858Z,1036.06
2023-02-06T08:50:36.389Z,1036.03
2023-02-06T08:51:36.388Z,1036.03
2023-02-06T08:52:36.721Z,1036.01
2023-02-06T08:53:37.026Z,1035.99
2023-02-06T08:54:38.789Z,1036.01
2023-02-06T08:55:37.951Z,1036.08
2023-02-06T08:56:37.999Z,1036.03
2023-02-06T08:57:38.159Z,1036.03
2023-02-06T08:58:38.431Z,1036.00
2023-02-06T08:59:38.742Z,1036.01
2023-02-06T09:00:38.997Z,1036.04
2023-02-06T09:01:39.421Z,1035.99
2023-02-06T09:02:39.635Z,1035.97
2023-02-06T09:03:39.965Z,1036.01
2023-02-06T09:04:40.269Z,1035.98
2023-02-06T09:05:40.632Z,1036.02
2023-02-06T09:06:40.895Z,1036.05
2023-02-06T09:07:41.100Z,1036.11
2023-02-06T09:08:41.359Z,1036.10
2023-02-06T09:09:41.668Z,1036.13
2023-02-06T09:10:41.938Z,1036.14
2023-02-06T09:11:49.265Z,1036.13
2023-02-06T09:12:45.184Z,1036.13
2023-02-06T09:13:42.822Z,1036.14
2023-02-06T09:14:44.695Z,1036.09
2023-02-06T09:15:43.413Z,1036.11
2023-02-06T09:16:43.622Z,1036.11
2023-02-06T09:17:43.953Z,1036.18
2023-02-06T09:18:44.256Z,1036.16
2023-02-06T09:19:44.516Z,1036.16
2023-02-06T09:20:44.883Z,1036.16
2023-02-06T09:21:45.105Z,1036.16
2023-02-06T09:22:45.357Z,1036.15
2023-02-06T09:23:45.539Z,1036.18
2023-02-06T09:24:45.798Z,1036.16
2023-02-06T09:25:46.335Z,1036.14
2023-02-06T09:26:58.895Z,1036.15
2023-02-06T09:27:47.727Z,1036.11
2023-02-06T09:28:46.957Z,1036.11
2023-02-06T09:29:47.228Z,1036.11
2023-02-06T09:30:47.628Z,1036.14
2023-02-06T09:31:47.936Z,1036.02
2023-02-06T09:32:48.133Z,1036.02
2023-02-06T09:33:48.436Z,1036.08
2023-02-06T09:34:49.316Z,1036.07
2023-02-06T09:35:48.997Z,1036.06
2023-02-06T09:36:49.196Z,1036.00
2023-02-06T09:37:49.548Z,1035.98
2023-02-06T09:38:49.740Z,1035.97
2023-02-06T09:39:50.004Z,1035.94
2023-02-06T09:40:50.365Z,1035.98
2023-02-06T09:41:50.555Z,1035.97
2023-02-06T09:42:50.776Z,1035.94
2023-02-06T09:43:51.144Z,1035.95
2023-02-06T09:44:51.412Z,1035.93
2023-02-06T09:45:51.659Z,1035.87
2023-02-06T09:46:52.015Z,1035.86
2023-02-06T09:47:52.198Z,1035.88
2023-02-06T09:48:52.551Z,1035.88
2023-02-06T09:49:52.792Z,1035.81
2023-02-06T09:50:53.048Z,1035.88
2023-02-06T09:51:53.386Z,1035.86
2023-02-06T09:52:53.641Z,1035.85
2023-02-06T09:53:53.862Z,1035.86
2023-02-06T09:54:54.203Z,1035.85
2023-02-06T09:55:54.446Z,1035.82
2023-02-06T09:56:54.652Z,1035.84
2023-02-06T09:57:54.879Z,1035.83
2023-02-06T09:58:55.143Z,1035.81
2023-02-06T09:59:55.437Z,1035.80
2023-02-06T10:00:55.724Z,1035.77
2023-02-06T10:01:55.956Z,1035.76
2023-02-06T10:02:56.250Z,1035.76
2023-02-06T10:03:56.556Z,1035.74
2023-02-06T10:04:56.805Z,1035.71
2023-02-06T10:05:57.174Z,1035.74
2023-02-06T10:06:57.394Z,1035.81
2023-02-06T10:07:57.615Z,1035.81
2023-02-06T10:08:57.952Z,1035.84
2023-02-06T10:09:58.271Z,1035.85
2023-02-06T10:10:58.602Z,1035.84
2023-02-06T10:11:58.777Z,1035.86
2023-02-06T10:12:59.086Z,1035.89
2023-02-06T10:13:59.341Z,1035.88
2023-02-06T10:14:59.573Z,1035.81
2023-02-06T10:15:59.922Z,1035.85
2023-02-06T10:17:00.255Z,1035.80
2023-02-06T10:18:00.568Z,1035.78
2023-02-06T10:19:00.822Z,1035.82
2023-02-06T10:20:01.058Z,1035.88
2023-02-06T10:21:01.333Z,1035.84
2023-02-06T10:22:01.516Z,1035.84
2023-02-06T10:23:01.792Z,1035.75
2023-02-06T10:24:02.113Z,1035.75
2023-02-06T10:25:02.326Z,1035.73
2023-02-06T10:26:02.589Z,1035.69
2023-02-06T10:27:02.927Z,1035.74
2023-02-06T10:28:03.333Z,1035.76
2023-02-06T10:29:03.582Z,1035.78
2023-02-06T10:30:03.788Z,1035.73
2023-02-06T10:31:04.138Z,1035.75
2023-02-06T10:32:04.261Z,1035.73
2023-02-06T10:33:07.885Z,1035.76
2023-02-06T10:34:05.857Z,1035.75
2023-02-06T10:35:05.116Z,1035.77
2023-02-06T10:36:05.403Z,1035.78
2023-02-06T10:37:05.732Z,1035.73
2023-02-06T10:38:05.937Z,1035.70
2023-02-06T10:39:06.243Z,1035.68
2023-02-06T10:40:06.508Z,1035.70
2023-02-06T10:41:06.805Z,1035.69
2023-02-06T10:42:07.072Z,1035.68
2023-02-06T10:43:07.426Z,1035.66
2023-02-06T10:44:07.660Z,1035.66
2023-02-06T10:45:19.348Z,1035.67
2023-02-06T10:46:09.154Z,1035.66
2023-02-06T10:47:08.414Z,1035.61
2023-02-06T10:48:08.699Z,1035.60
2023-02-06T10:49:08.923Z,1035.61
2023-02-06T10:50:09.273Z,1035.68
2023-02-06T10:51:09.573Z,1035.71
2023-02-06T10:52:09.828Z,1035.61
2023-02-06T10:53:10.124Z,1035.62
2023-02-06T10:54:10.315Z,1035.62
2023-02-06T10:55:10.545Z,1035.52
2023-02-06T10:56:10.784Z,1035.51
2023-02-06T10:57:11.019Z,1035.45
2023-02-06T10:58:11.266Z,1035.39
2023-02-06T10:59:11.623Z,1035.37
2023-02-06T11:00:11.838Z,1035.34
2023-02-06T11:01:25.196Z,1035.28
2023-02-06T11:02:13.512Z,1035.28
2023-02-06T11:03:12.828Z,1035.27
2023-02-06T11:04:13.041Z,1035.22
2023-02-06T11:05:13.371Z,1035.19
2023-02-06T11:06:13.593Z,1035.22
2023-02-06T11:07:13.852Z,1035.22
2023-02-06T11:08:14.155Z,1035.17
2023-02-06T11:09:14.360Z,1035.15
2023-02-06T11:10:14.675Z,1035.13
2023-02-06T11:11:14.950Z,1035.15
2023-02-06T11:12:15.144Z,1035.14
2023-02-06T11:13:15.403Z,1035.11
2023-02-06T11:14:15.732Z,1035.11
2023-02-06T11:15:15.994Z,1035.12
2023-02-06T11:16:16.372Z,1035.08
2023-02-06T11:17:16.564Z,1035.00
2023-02-06T11:18:16.853Z,1035.02
2023-02-06T11:19:17.073Z,1034.99
2023-02-06T11:20:17.374Z,1034.97
2023-02-06T11:21:17.759Z,1034.95
2023-02-06T11:22:17.983Z,1034.98
2023-02-06T11:23:18.294Z,1034.96
2023-02-06T11:24:18.523Z,1034.96
2023-02-06T11:25:18.813Z,1034.92
2023-02-06T11:26:19.034Z,1034.88
2023-02-06T11:27:19.343Z,1034.88
2023-02-06T11:28:19.651Z,1034.91
2023-02-06T11:29:19.822Z,1034.84
2023-02-06T11:30:20.124Z,1034.85
2023-02-06T11:31:20.365Z,1034.87
2023-02-06T11:32:20.598Z,1034.84
2023-02-06T11:33:20.874Z,1034.85
2023-02-06T11:34:21.042Z,1034.86
2023-02-06T11:35:21.338Z,1034.86
2023-02-06T11:36:21.533Z,1034.92
2023-02-06T11:37:21.793Z,1034.86
2023-02-06T11:38:22.113Z,1034.87
2023-02-06T11:39:22.463Z,1034.87
2023-02-06T11:40:22.777Z,1034.84
2023-02-06T11:41:23.040Z,1034.85
2023-02-06T11:42:23.233Z,1034.78
2023-02-06T11:43:23.540Z,1034.79
2023-02-06T11:44:23.735Z,1034.79
2023-02-06T11:45:24.194Z,1034.76
2023-02-06T11:46:24.289Z,1034.70
2023-02-06T11:47:24.630Z,1034.69
2023-02-06T11:48:24.978Z,1034.65
2023-02-06T11:49:25.320Z,1034.63
2023-02-06T11:50:25.559Z,1034.57
2023-02-06T11:51:25.772Z,1034.58
2023-02-06T11:52:26.065Z,1034.58
2023-02-06T11:53:26.365Z,1034.60
2023-02-06T11:54:26.564Z,1034.59
2023-02-06T11:55:26.793Z,1034.60
2023-02-06T11:56:27.067Z,1034.58
2023-02-06T11:57:27.408Z,1034.59
2023-02-06T11:58:27.771Z,1034.64
2023-02-06T11:59:27.961Z,1034.62
2023-02-06T12:00:28.221Z,1034.64
2023-02-06T12:01:28.534Z,1034.63
2023-02-06T12:02:28.807Z,1034.62
2023-02-06T12:03:29.178Z,1034.61
2023-02-06T12:04:29.357Z,1034.58
2023-02-06T12:05:29.656Z,1034.59
2023-02-06T12:06:29.872Z,1034.53
2023-02-06T12:07:30.217Z,1034.58
2023-02-06T12:08:30.575Z,1034.64
2023-02-06T12:09:30.763Z,1034.62